sensor_id;sensor_type;location;lat;lon;timestamp;P1;durP1;ratioP1;P2;durP2;ratioP2
27003;SDS011;14546;47.590;19.022;2023-01-09T00:00:23;38.10;;;24.70;;
27003;SDS011;14546;47.590;19.022;2023-01-09T00:02:49;34.72;;;23.13;;
27003;SDS011;14546;47.590;19.022;2023-01-09T00:05:16;36.03;;;24.08;;
27003;SDS011;14546;47.590;19.022;2023-01-09T00:07:42;34.35;;;23.75;;
27003;SDS011;14546;47.590;19.022;2023-01-09T00:10:09;33.95;;;23.15;;
27003;SDS011;14546;47.590;19.022;2023-01-09T00:12:35;36.83;;;23.80;;
27003;SDS011;14546;47.590;19.022;2023-01-09T00:15:01;37.15;;;24.30;;
27003;SDS011;14546;47.590;19.022;2023-01-09T00:17:27;42.90;;;24.85;;
27003;SDS011;14546;47.590;19.022;2023-01-09T00:19:53;38.78;;;25.05;;
27003;SDS011;14546;47.590;19.022;2023-01-09T00:22:19;34.15;;;22.52;;
27003;SDS011;14546;47.590;19.022;2023-01-09T00:24:45;35.83;;;23.10;;
27003;SDS011;14546;47.590;19.022;2023-01-09T00:27:12;37.55;;;23.10;;
27003;SDS011;14546;47.590;19.022;2023-01-09T00:29:38;39.00;;;24.80;;
27003;SDS011;14546;47.590;19.022;2023-01-09T00:32:06;36.70;;;23.77;;
27003;SDS011;14546;47.590;19.022;2023-01-09T00:34:34;38.83;;;23.83;;
27003;SDS011;14546;47.590;19.022;2023-01-09T00:37:01;37.53;;;24.17;;
27003;SDS011;14546;47.590;19.022;2023-01-09T00:39:27;34.85;;;23.92;;
27003;SDS011;14546;47.590;19.022;2023-01-09T00:41:54;32.95;;;23.63;;
27003;SDS011;14546;47.590;19.022;2023-01-09T00:44:23;33.03;;;22.85;;
27003;SDS011;14546;47.590;19.022;2023-01-09T00:46:51;36.20;;;24.40;;
27003;SDS011;14546;47.590;19.022;2023-01-09T00:49:18;39.17;;;24.55;;
27003;SDS011;14546;47.590;19.022;2023-01-09T00:51:44;32.47;;;23.15;;
27003;SDS011;14546;47.590;19.022;2023-01-09T00:54:10;39.97;;;25.13;;
27003;SDS011;14546;47.590;19.022;2023-01-09T00:56:38;35.63;;;24.73;;
27003;SDS011;14546;47.590;19.022;2023-01-09T00:59:04;36.58;;;24.25;;
27003;SDS011;14546;47.590;19.022;2023-01-09T01:01:31;35.72;;;23.48;;
27003;SDS011;14546;47.590;19.022;2023-01-09T01:03:57;41.65;;;25.35;;
27003;SDS011;14546;47.590;19.022;2023-01-09T01:06:23;36.88;;;24.75;;
27003;SDS011;14546;47.590;19.022;2023-01-09T01:09:08;34.70;;;23.65;;
27003;SDS011;14546;47.590;19.022;2023-01-09T01:11:34;37.50;;;23.13;;
27003;SDS011;14546;47.590;19.022;2023-01-09T01:14:00;39.20;;;24.48;;
27003;SDS011;14546;47.590;19.022;2023-01-09T01:16:26;33.72;;;22.88;;
27003;SDS011;14546;47.590;19.022;2023-01-09T01:18:52;35.85;;;23.70;;
27003;SDS011;14546;47.590;19.022;2023-01-09T01:21:18;32.97;;;22.95;;
27003;SDS011;14546;47.590;19.022;2023-01-09T01:23:44;36.42;;;23.40;;
27003;SDS011;14546;47.590;19.022;2023-01-09T01:26:11;33.78;;;22.27;;
27003;SDS011;14546;47.590;19.022;2023-01-09T01:28:38;31.80;;;22.30;;
27003;SDS011;14546;47.590;19.022;2023-01-09T01:31:07;33.25;;;21.95;;
27003;SDS011;14546;47.590;19.022;2023-01-09T01:33:33;31.98;;;21.55;;
27003;SDS011;14546;47.590;19.022;2023-01-09T01:36:03;32.97;;;21.85;;
27003;SDS011;14546;47.590;19.022;2023-01-09T01:38:30;31.83;;;21.55;;
27003;SDS011;14546;47.590;19.022;2023-01-09T01:40:56;28.90;;;21.20;;
27003;SDS011;14546;47.590;19.022;2023-01-09T01:43:23;31.95;;;20.85;;
27003;SDS011;14546;47.590;19.022;2023-01-09T01:45:49;31.45;;;20.70;;
27003;SDS011;14546;47.590;19.022;2023-01-09T01:48:17;27.08;;;18.38;;
27003;SDS011;14546;47.590;19.022;2023-01-09T01:50:45;29.67;;;20.88;;
27003;SDS011;14546;47.590;19.022;2023-01-09T01:55:39;28.48;;;19.88;;
27003;SDS011;14546;47.590;19.022;2023-01-09T01:58:06;30.30;;;19.75;;
27003;SDS011;14546;47.590;19.022;2023-01-09T02:00:36;31.38;;;20.25;;
27003;SDS011;14546;47.590;19.022;2023-01-09T02:03:03;29.73;;;20.40;;
27003;SDS011;14546;47.590;19.022;2023-01-09T02:05:31;33.95;;;19.65;;
27003;SDS011;14546;47.590;19.022;2023-01-09T02:07:57;26.67;;;18.60;;
27003;SDS011;14546;47.590;19.022;2023-01-09T02:10:23;26.67;;;19.20;;
27003;SDS011;14546;47.590;19.022;2023-01-09T02:12:50;28.23;;;19.20;;
27003;SDS011;14546;47.590;19.022;2023-01-09T02:15:16;27.77;;;18.25;;
27003;SDS011;14546;47.590;19.022;2023-01-09T02:17:49;27.83;;;18.75;;
27003;SDS011;14546;47.590;19.022;2023-01-09T02:36:19;25.15;;;17.63;;
27003;SDS011;14546;47.590;19.022;2023-01-09T02:41:37;26.88;;;17.83;;
27003;SDS011;14546;47.590;19.022;2023-01-09T02:46:41;24.83;;;16.98;;
27003;SDS011;14546;47.590;19.022;2023-01-09T02:49:07;29.27;;;18.40;;
27003;SDS011;14546;47.590;19.022;2023-01-09T02:51:44;26.85;;;17.58;;
27003;SDS011;14546;47.590;19.022;2023-01-09T02:55:03;25.23;;;17.13;;
27003;SDS011;14546;47.590;19.022;2023-01-09T02:59:35;25.27;;;16.65;;
27003;SDS011;14546;47.590;19.022;2023-01-09T03:02:13;30.77;;;17.58;;
27003;SDS011;14546;47.590;19.022;2023-01-09T03:12:38;27.15;;;17.63;;
27003;SDS011;14546;47.590;19.022;2023-01-09T03:15:06;25.55;;;17.73;;
27003;SDS011;14546;47.590;19.022;2023-01-09T03:17:36;24.88;;;17.58;;
27003;SDS011;14546;47.590;19.022;2023-01-09T03:20:03;25.33;;;17.63;;
27003;SDS011;14546;47.590;19.022;2023-01-09T03:22:30;29.50;;;18.13;;
27003;SDS011;14546;47.590;19.022;2023-01-09T03:24:57;24.25;;;16.33;;
27003;SDS011;14546;47.590;19.022;2023-01-09T03:27:23;30.73;;;17.38;;
27003;SDS011;14546;47.590;19.022;2023-01-09T03:29:49;24.00;;;16.30;;
27003;SDS011;14546;47.590;19.022;2023-01-09T03:32:17;28.15;;;17.73;;
27003;SDS011;14546;47.590;19.022;2023-01-09T03:34:43;24.25;;;16.98;;
27003;SDS011;14546;47.590;19.022;2023-01-09T03:37:09;30.65;;;17.27;;
27003;SDS011;14546;47.590;19.022;2023-01-09T03:39:35;26.15;;;18.05;;
27003;SDS011;14546;47.590;19.022;2023-01-09T03:42:01;28.83;;;17.02;;
27003;SDS011;14546;47.590;19.022;2023-01-09T03:44:27;28.38;;;17.80;;
27003;SDS011;14546;47.590;19.022;2023-01-09T03:46:53;26.98;;;17.20;;
27003;SDS011;14546;47.590;19.022;2023-01-09T03:49:19;27.98;;;17.67;;
27003;SDS011;14546;47.590;19.022;2023-01-09T03:51:45;25.13;;;16.48;;
27003;SDS011;14546;47.590;19.022;2023-01-09T03:54:12;23.23;;;16.42;;
27003;SDS011;14546;47.590;19.022;2023-01-09T03:56:38;28.23;;;18.23;;
27003;SDS011;14546;47.590;19.022;2023-01-09T03:59:04;26.02;;;17.38;;
27003;SDS011;14546;47.590;19.022;2023-01-09T04:01:30;27.90;;;16.42;;
27003;SDS011;14546;47.590;19.022;2023-01-09T04:03:59;25.80;;;17.00;;
27003;SDS011;14546;47.590;19.022;2023-01-09T04:06:25;26.83;;;16.92;;
27003;SDS011;14546;47.590;19.022;2023-01-09T04:08:51;30.33;;;18.30;;
27003;SDS011;14546;47.590;19.022;2023-01-09T04:11:17;24.85;;;16.13;;
27003;SDS011;14546;47.590;19.022;2023-01-09T04:13:46;25.52;;;16.90;;
27003;SDS011;14546;47.590;19.022;2023-01-09T04:16:12;25.20;;;16.35;;
27003;SDS011;14546;47.590;19.022;2023-01-09T04:18:38;24.27;;;16.50;;
27003;SDS011;14546;47.590;19.022;2023-01-09T04:21:04;26.33;;;17.42;;
27003;SDS011;14546;47.590;19.022;2023-01-09T04:23:30;24.17;;;15.70;;
27003;SDS011;14546;47.590;19.022;2023-01-09T04:25:56;25.58;;;17.15;;
27003;SDS011;14546;47.590;19.022;2023-01-09T04:28:22;25.48;;;16.67;;
27003;SDS011;14546;47.590;19.022;2023-01-09T04:30:48;25.10;;;16.33;;
27003;SDS011;14546;47.590;19.022;2023-01-09T04:33:14;25.63;;;17.30;;
27003;SDS011;14546;47.590;19.022;2023-01-09T04:35:40;29.55;;;18.15;;
27003;SDS011;14546;47.590;19.022;2023-01-09T04:38:06;28.27;;;17.63;;
27003;SDS011;14546;47.590;19.022;2023-01-09T04:40:35;25.00;;;17.33;;
27003;SDS011;14546;47.590;19.022;2023-01-09T04:43:01;25.92;;;16.75;;
27003;SDS011;14546;47.590;19.022;2023-01-09T04:45:27;29.25;;;17.98;;
27003;SDS011;14546;47.590;19.022;2023-01-09T04:47:53;26.77;;;17.50;;
27003;SDS011;14546;47.590;19.022;2023-01-09T04:50:19;23.63;;;17.67;;
27003;SDS011;14546;47.590;19.022;2023-01-09T04:52:48;25.27;;;16.38;;
27003;SDS011;14546;47.590;19.022;2023-01-09T04:55:14;29.25;;;17.48;;
27003;SDS011;14546;47.590;19.022;2023-01-09T04:57:40;28.25;;;18.48;;
27003;SDS011;14546;47.590;19.022;2023-01-09T05:00:06;28.52;;;17.25;;
27003;SDS011;14546;47.590;19.022;2023-01-09T05:02:34;24.40;;;17.85;;
27003;SDS011;14546;47.590;19.022;2023-01-09T05:05:00;30.55;;;18.95;;
27003;SDS011;14546;47.590;19.022;2023-01-09T05:07:26;28.10;;;18.70;;
27003;SDS011;14546;47.590;19.022;2023-01-09T05:09:52;28.83;;;17.80;;
27003;SDS011;14546;47.590;19.022;2023-01-09T05:12:18;27.58;;;17.98;;
27003;SDS011;14546;47.590;19.022;2023-01-09T05:14:44;28.20;;;17.85;;
27003;SDS011;14546;47.590;19.022;2023-01-09T05:17:10;26.65;;;17.55;;
27003;SDS011;14546;47.590;19.022;2023-01-09T05:19:36;27.30;;;18.25;;
27003;SDS011;14546;47.590;19.022;2023-01-09T05:22:02;30.42;;;18.20;;
27003;SDS011;14546;47.590;19.022;2023-01-09T05:24:28;29.20;;;18.83;;
27003;SDS011;14546;47.590;19.022;2023-01-09T05:26:55;28.60;;;18.45;;
27003;SDS011;14546;47.590;19.022;2023-01-09T05:29:21;25.60;;;17.65;;
27003;SDS011;14546;47.590;19.022;2023-01-09T05:31:47;28.05;;;17.42;;
27003;SDS011;14546;47.590;19.022;2023-01-09T05:34:13;25.83;;;16.88;;
27003;SDS011;14546;47.590;19.022;2023-01-09T05:36:39;28.35;;;18.27;;
27003;SDS011;14546;47.590;19.022;2023-01-09T05:39:05;29.85;;;18.02;;
27003;SDS011;14546;47.590;19.022;2023-01-09T05:41:31;27.50;;;17.58;;
27003;SDS011;14546;47.590;19.022;2023-01-09T05:43:57;28.35;;;17.98;;
27003;SDS011;14546;47.590;19.022;2023-01-09T05:46:23;24.40;;;15.98;;
27003;SDS011;14546;47.590;19.022;2023-01-09T05:48:52;25.73;;;17.00;;
27003;SDS011;14546;47.590;19.022;2023-01-09T05:51:18;27.85;;;17.48;;
27003;SDS011;14546;47.590;19.022;2023-01-09T05:53:44;28.27;;;18.15;;
27003;SDS011;14546;47.590;19.022;2023-01-09T05:56:10;27.38;;;17.20;;
27003;SDS011;14546;47.590;19.022;2023-01-09T05:58:36;26.85;;;18.02;;
27003;SDS011;14546;47.590;19.022;2023-01-09T06:01:02;31.83;;;19.33;;
27003;SDS011;14546;47.590;19.022;2023-01-09T06:03:28;27.23;;;17.45;;
27003;SDS011;14546;47.590;19.022;2023-01-09T06:05:54;26.70;;;16.70;;
27003;SDS011;14546;47.590;19.022;2023-01-09T06:08:20;31.40;;;18.42;;
27003;SDS011;14546;47.590;19.022;2023-01-09T06:10:46;25.58;;;17.17;;
27003;SDS011;14546;47.590;19.022;2023-01-09T06:13:12;25.75;;;17.00;;
27003;SDS011;14546;47.590;19.022;2023-01-09T06:15:38;26.73;;;17.70;;
27003;SDS011;14546;47.590;19.022;2023-01-09T06:18:04;26.25;;;18.08;;
27003;SDS011;14546;47.590;19.022;2023-01-09T06:20:30;26.38;;;17.17;;
27003;SDS011;14546;47.590;19.022;2023-01-09T06:22:56;24.13;;;16.83;;
27003;SDS011;14546;47.590;19.022;2023-01-09T06:25:23;24.25;;;16.35;;
27003;SDS011;14546;47.590;19.022;2023-01-09T06:27:49;30.42;;;17.58;;
27003;SDS011;14546;47.590;19.022;2023-01-09T06:30:16;26.55;;;16.27;;
27003;SDS011;14546;47.590;19.022;2023-01-09T06:32:42;25.48;;;16.55;;
27003;SDS011;14546;47.590;19.022;2023-01-09T06:35:08;28.08;;;18.02;;
27003;SDS011;14546;47.590;19.022;2023-01-09T06:37:36;29.15;;;17.50;;
27003;SDS011;14546;47.590;19.022;2023-01-09T06:40:02;23.55;;;17.65;;
27003;SDS011;14546;47.590;19.022;2023-01-09T06:42:28;34.80;;;17.52;;
27003;SDS011;14546;47.590;19.022;2023-01-09T06:44:54;25.33;;;17.38;;
27003;SDS011;14546;47.590;19.022;2023-01-09T06:47:20;28.45;;;18.95;;
27003;SDS011;14546;47.590;19.022;2023-01-09T06:49:46;27.73;;;16.90;;
27003;SDS011;14546;47.590;19.022;2023-01-09T06:52:12;28.02;;;17.83;;
27003;SDS011;14546;47.590;19.022;2023-01-09T06:54:39;25.48;;;17.88;;
27003;SDS011;14546;47.590;19.022;2023-01-09T06:57:05;23.55;;;17.23;;
27003;SDS011;14546;47.590;19.022;2023-01-09T06:59:32;29.27;;;18.90;;
27003;SDS011;14546;47.590;19.022;2023-01-09T07:01:58;28.15;;;18.60;;
27003;SDS011;14546;47.590;19.022;2023-01-09T07:04:24;29.73;;;19.23;;
27003;SDS011;14546;47.590;19.022;2023-01-09T07:06:50;26.90;;;17.45;;
27003;SDS011;14546;47.590;19.022;2023-01-09T07:09:16;26.23;;;18.50;;
27003;SDS011;14546;47.590;19.022;2023-01-09T07:11:42;30.70;;;18.70;;
27003;SDS011;14546;47.590;19.022;2023-01-09T07:14:09;26.05;;;17.92;;
27003;SDS011;14546;47.590;19.022;2023-01-09T07:16:35;26.73;;;18.15;;
27003;SDS011;14546;47.590;19.022;2023-01-09T07:19:01;26.83;;;17.40;;
27003;SDS011;14546;47.590;19.022;2023-01-09T07:21:28;31.42;;;18.20;;
27003;SDS011;14546;47.590;19.022;2023-01-09T07:23:55;27.63;;;16.15;;
27003;SDS011;14546;47.590;19.022;2023-01-09T07:26:21;24.85;;;16.65;;
27003;SDS011;14546;47.590;19.022;2023-01-09T07:28:47;22.95;;;17.15;;
27003;SDS011;14546;47.590;19.022;2023-01-09T07:31:13;26.85;;;17.10;;
27003;SDS011;14546;47.590;19.022;2023-01-09T07:33:39;27.08;;;16.88;;
27003;SDS011;14546;47.590;19.022;2023-01-09T07:36:05;26.70;;;17.35;;
27003;SDS011;14546;47.590;19.022;2023-01-09T07:38:31;29.20;;;17.10;;
27003;SDS011;14546;47.590;19.022;2023-01-09T07:40:57;26.60;;;18.05;;
27003;SDS011;14546;47.590;19.022;2023-01-09T07:43:23;24.95;;;16.80;;
27003;SDS011;14546;47.590;19.022;2023-01-09T07:45:50;25.33;;;17.80;;
27003;SDS011;14546;47.590;19.022;2023-01-09T07:48:16;24.98;;;17.80;;
27003;SDS011;14546;47.590;19.022;2023-01-09T07:50:42;32.05;;;17.55;;
27003;SDS011;14546;47.590;19.022;2023-01-09T07:53:08;26.88;;;18.17;;
27003;SDS011;14546;47.590;19.022;2023-01-09T07:55:34;29.27;;;17.25;;
27003;SDS011;14546;47.590;19.022;2023-01-09T07:58:00;27.35;;;17.40;;
27003;SDS011;14546;47.590;19.022;2023-01-09T08:00:26;27.65;;;18.05;;
27003;SDS011;14546;47.590;19.022;2023-01-09T08:02:52;25.65;;;17.55;;
27003;SDS011;14546;47.590;19.022;2023-01-09T08:05:18;28.50;;;18.02;;
27003;SDS011;14546;47.590;19.022;2023-01-09T08:07:44;26.35;;;18.13;;
27003;SDS011;14546;47.590;19.022;2023-01-09T08:10:11;24.50;;;17.73;;
27003;SDS011;14546;47.590;19.022;2023-01-09T08:12:41;28.23;;;17.20;;
27003;SDS011;14546;47.590;19.022;2023-01-09T08:15:07;25.77;;;17.45;;
27003;SDS011;14546;47.590;19.022;2023-01-09T08:17:33;29.67;;;17.30;;
27003;SDS011;14546;47.590;19.022;2023-01-09T08:19:59;27.05;;;16.75;;
27003;SDS011;14546;47.590;19.022;2023-01-09T08:22:25;27.67;;;16.95;;
27003;SDS011;14546;47.590;19.022;2023-01-09T08:24:51;26.30;;;17.20;;
27003;SDS011;14546;47.590;19.022;2023-01-09T08:27:18;26.88;;;17.80;;
27003;SDS011;14546;47.590;19.022;2023-01-09T08:29:44;24.88;;;16.75;;
27003;SDS011;14546;47.590;19.022;2023-01-09T08:32:10;23.38;;;16.17;;
27003;SDS011;14546;47.590;19.022;2023-01-09T08:34:36;28.17;;;17.50;;
27003;SDS011;14546;47.590;19.022;2023-01-09T08:37:03;26.30;;;16.80;;
27003;SDS011;14546;47.590;19.022;2023-01-09T08:39:29;25.13;;;17.38;;
27003;SDS011;14546;47.590;19.022;2023-01-09T08:41:55;24.33;;;17.02;;
27003;SDS011;14546;47.590;19.022;2023-01-09T08:44:40;26.55;;;17.63;;
27003;SDS011;14546;47.590;19.022;2023-01-09T08:47:24;25.98;;;17.48;;
27003;SDS011;14546;47.590;19.022;2023-01-09T08:49:52;26.80;;;17.63;;
27003;SDS011;14546;47.590;19.022;2023-01-09T08:52:18;29.15;;;18.00;;
27003;SDS011;14546;47.590;19.022;2023-01-09T08:54:44;35.53;;;18.17;;
27003;SDS011;14546;47.590;19.022;2023-01-09T08:57:10;28.52;;;17.83;;
27003;SDS011;14546;47.590;19.022;2023-01-09T08:59:36;26.67;;;17.75;;
27003;SDS011;14546;47.590;19.022;2023-01-09T09:02:02;30.83;;;18.98;;
27003;SDS011;14546;47.590;19.022;2023-01-09T09:04:28;28.52;;;18.63;;
27003;SDS011;14546;47.590;19.022;2023-01-09T09:06:54;29.88;;;19.25;;
27003;SDS011;14546;47.590;19.022;2023-01-09T09:09:20;32.30;;;19.77;;
27003;SDS011;14546;47.590;19.022;2023-01-09T09:11:47;24.60;;;18.20;;
27003;SDS011;14546;47.590;19.022;2023-01-09T09:14:13;27.50;;;18.98;;
27003;SDS011;14546;47.590;19.022;2023-01-09T09:16:57;30.42;;;18.38;;
27003;SDS011;14546;47.590;19.022;2023-01-09T09:19:23;29.27;;;17.80;;
27003;SDS011;14546;47.590;19.022;2023-01-09T09:21:49;28.83;;;18.55;;
27003;SDS011;14546;47.590;19.022;2023-01-09T09:24:15;30.17;;;19.00;;
27003;SDS011;14546;47.590;19.022;2023-01-09T09:26:41;28.30;;;19.40;;
27003;SDS011;14546;47.590;19.022;2023-01-09T09:29:07;29.15;;;19.63;;
27003;SDS011;14546;47.590;19.022;2023-01-09T09:31:34;29.60;;;19.65;;
27003;SDS011;14546;47.590;19.022;2023-01-09T09:34:01;33.35;;;20.45;;
27003;SDS011;14546;47.590;19.022;2023-01-09T09:36:30;29.08;;;19.95;;
27003;SDS011;14546;47.590;19.022;2023-01-09T09:38:56;32.03;;;19.55;;
27003;SDS011;14546;47.590;19.022;2023-01-09T09:41:34;37.65;;;21.20;;
27003;SDS011;14546;47.590;19.022;2023-01-09T09:49:47;25.85;;;19.15;;
27003;SDS011;14546;47.590;19.022;2023-01-09T09:54:51;30.05;;;19.15;;
27003;SDS011;14546;47.590;19.022;2023-01-09T09:57:19;28.20;;;19.33;;
27003;SDS011;14546;47.590;19.022;2023-01-09T09:59:47;27.83;;;19.02;;
27003;SDS011;14546;47.590;19.022;2023-01-09T10:04:48;30.67;;;20.05;;
27003;SDS011;14546;47.590;19.022;2023-01-09T10:07:20;32.10;;;20.98;;
27003;SDS011;14546;47.590;19.022;2023-01-09T10:09:48;27.90;;;19.50;;
27003;SDS011;14546;47.590;19.022;2023-01-09T10:15:20;31.73;;;20.98;;
27003;SDS011;14546;47.590;19.022;2023-01-09T10:18:03;33.80;;;21.80;;
27003;SDS011;14546;47.590;19.022;2023-01-09T10:38:49;36.85;;;22.60;;
27003;SDS011;14546;47.590;19.022;2023-01-09T10:46:36;34.35;;;23.95;;
27003;SDS011;14546;47.590;19.022;2023-01-09T10:49:06;36.03;;;23.05;;
27003;SDS011;14546;47.590;19.022;2023-01-09T10:51:50;34.63;;;21.83;;
27003;SDS011;14546;47.590;19.022;2023-01-09T10:54:20;37.53;;;22.77;;
27003;SDS011;14546;47.590;19.022;2023-01-09T10:56:59;38.97;;;22.38;;
27003;SDS011;14546;47.590;19.022;2023-01-09T10:59:29;32.58;;;23.30;;
27003;SDS011;14546;47.590;19.022;2023-01-09T11:01:56;36.58;;;25.42;;
27003;SDS011;14546;47.590;19.022;2023-01-09T11:04:23;38.35;;;24.77;;
27003;SDS011;14546;47.590;19.022;2023-01-09T11:06:55;38.45;;;24.45;;
27003;SDS011;14546;47.590;19.022;2023-01-09T11:09:23;42.03;;;25.47;;
27003;SDS011;14546;47.590;19.022;2023-01-09T11:11:49;35.83;;;24.77;;
27003;SDS011;14546;47.590;19.022;2023-01-09T11:14:18;39.47;;;24.33;;
27003;SDS011;14546;47.590;19.022;2023-01-09T11:16:58;37.05;;;25.52;;
27003;SDS011;14546;47.590;19.022;2023-01-09T11:19:25;39.53;;;26.77;;
27003;SDS011;14546;47.590;19.022;2023-01-09T11:22:08;42.88;;;27.42;;
27003;SDS011;14546;47.590;19.022;2023-01-09T11:24:39;42.88;;;27.00;;
27003;SDS011;14546;47.590;19.022;2023-01-09T11:29:38;43.83;;;27.50;;
27003;SDS011;14546;47.590;19.022;2023-01-09T11:32:04;41.03;;;26.85;;
27003;SDS011;14546;47.590;19.022;2023-01-09T11:34:31;39.15;;;26.02;;
27003;SDS011;14546;47.590;19.022;2023-01-09T11:39:30;41.00;;;26.42;;
27003;SDS011;14546;47.590;19.022;2023-01-09T11:42:04;38.17;;;25.48;;
27003;SDS011;14546;47.590;19.022;2023-01-09T11:44:31;37.40;;;25.23;;
27003;SDS011;14546;47.590;19.022;2023-01-09T11:46:57;38.38;;;25.27;;
27003;SDS011;14546;47.590;19.022;2023-01-09T11:49:27;38.13;;;25.20;;
27003;SDS011;14546;47.590;19.022;2023-01-09T11:54:52;42.13;;;27.02;;
27003;SDS011;14546;47.590;19.022;2023-01-09T11:57:20;36.85;;;26.92;;
27003;SDS011;14546;47.590;19.022;2023-01-09T11:59:47;44.33;;;28.75;;
27003;SDS011;14546;47.590;19.022;2023-01-09T12:28:34;43.28;;;29.75;;
27003;SDS011;14546;47.590;19.022;2023-01-09T12:47:08;44.88;;;30.65;;
27003;SDS011;14546;47.590;19.022;2023-01-09T12:49:41;44.65;;;30.13;;
27003;SDS011;14546;47.590;19.022;2023-01-09T12:52:15;47.35;;;31.17;;
27003;SDS011;14546;47.590;19.022;2023-01-09T12:57:30;43.88;;;28.70;;
27003;SDS011;14546;47.590;19.022;2023-01-09T12:59:59;40.47;;;28.52;;
27003;SDS011;14546;47.590;19.022;2023-01-09T13:02:35;48.72;;;30.20;;
27003;SDS011;14546;47.590;19.022;2023-01-09T13:05:08;43.40;;;30.27;;
27003;SDS011;14546;47.590;19.022;2023-01-09T13:07:39;44.47;;;28.88;;
27003;SDS011;14546;47.590;19.022;2023-01-09T13:10:10;43.72;;;31.25;;
27003;SDS011;14546;47.590;19.022;2023-01-09T13:12:39;43.55;;;30.52;;
27003;SDS011;14546;47.590;19.022;2023-01-09T13:15:29;44.00;;;31.17;;
27003;SDS011;14546;47.590;19.022;2023-01-09T13:17:53;44.03;;;33.15;;
27003;SDS011;14546;47.590;19.022;2023-01-09T13:20:23;51.60;;;33.85;;
27003;SDS011;14546;47.590;19.022;2023-01-09T13:22:51;48.92;;;33.35;;
27003;SDS011;14546;47.590;19.022;2023-01-09T13:25:52;48.42;;;32.80;;
27003;SDS011;14546;47.590;19.022;2023-01-09T13:28:19;52.13;;;34.63;;
27003;SDS011;14546;47.590;19.022;2023-01-09T13:33:20;52.42;;;34.75;;
27003;SDS011;14546;47.590;19.022;2023-01-09T13:35:49;55.63;;;35.78;;
27003;SDS011;14546;47.590;19.022;2023-01-09T13:38:16;54.22;;;35.20;;
27003;SDS011;14546;47.590;19.022;2023-01-09T13:40:43;51.22;;;33.92;;
27003;SDS011;14546;47.590;19.022;2023-01-09T13:43:09;54.80;;;36.10;;
27003;SDS011;14546;47.590;19.022;2023-01-09T13:45:37;59.42;;;36.60;;
27003;SDS011;14546;47.590;19.022;2023-01-09T13:50:38;53.63;;;35.78;;
27003;SDS011;14546;47.590;19.022;2023-01-09T13:56:05;54.63;;;35.42;;
27003;SDS011;14546;47.590;19.022;2023-01-09T14:01:06;58.53;;;36.50;;
27003;SDS011;14546;47.590;19.022;2023-01-09T14:07:04;58.67;;;36.63;;
27003;SDS011;14546;47.590;19.022;2023-01-09T14:09:35;61.30;;;39.55;;
27003;SDS011;14546;47.590;19.022;2023-01-09T14:14:28;63.55;;;37.67;;
27003;SDS011;14546;47.590;19.022;2023-01-09T14:16:55;66.28;;;41.22;;
27003;SDS011;14546;47.590;19.022;2023-01-09T14:19:33;67.10;;;39.88;;
27003;SDS011;14546;47.590;19.022;2023-01-09T14:22:00;71.45;;;41.70;;
27003;SDS011;14546;47.590;19.022;2023-01-09T14:24:31;60.85;;;39.45;;
27003;SDS011;14546;47.590;19.022;2023-01-09T14:26:59;60.70;;;38.95;;
27003;SDS011;14546;47.590;19.022;2023-01-09T14:34:56;61.72;;;39.28;;
27003;SDS011;14546;47.590;19.022;2023-01-09T14:37:24;65.50;;;40.20;;
27003;SDS011;14546;47.590;19.022;2023-01-09T14:39:52;70.72;;;41.20;;
27003;SDS011;14546;47.590;19.022;2023-01-09T14:42:19;70.40;;;42.88;;
27003;SDS011;14546;47.590;19.022;2023-01-09T14:44:48;70.93;;;41.97;;
27003;SDS011;14546;47.590;19.022;2023-01-09T14:49:54;67.00;;;42.65;;
27003;SDS011;14546;47.590;19.022;2023-01-09T14:52:25;75.47;;;41.58;;
27003;SDS011;14546;47.590;19.022;2023-01-09T14:54:53;85.40;;;42.85;;
27003;SDS011;14546;47.590;19.022;2023-01-09T14:57:26;69.93;;;42.28;;
27003;SDS011;14546;47.590;19.022;2023-01-09T15:00:34;69.80;;;45.63;;
27003;SDS011;14546;47.590;19.022;2023-01-09T15:02:41;67.43;;;42.28;;
27003;SDS011;14546;47.590;19.022;2023-01-09T15:05:12;64.45;;;40.97;;
27003;SDS011;14546;47.590;19.022;2023-01-09T15:07:44;61.83;;;38.22;;
27003;SDS011;14546;47.590;19.022;2023-01-09T15:10:21;56.33;;;35.95;;
27003;SDS011;14546;47.590;19.022;2023-01-09T15:12:48;63.90;;;38.55;;
27003;SDS011;14546;47.590;19.022;2023-01-09T15:15:15;63.92;;;37.38;;
27003;SDS011;14546;47.590;19.022;2023-01-09T15:17:44;62.17;;;39.42;;
27003;SDS011;14546;47.590;19.022;2023-01-09T15:20:19;60.72;;;40.78;;
27003;SDS011;14546;47.590;19.022;2023-01-09T15:22:48;65.50;;;42.88;;
27003;SDS011;14546;47.590;19.022;2023-01-09T15:27:54;60.88;;;39.80;;
27003;SDS011;14546;47.590;19.022;2023-01-09T15:32:58;54.88;;;39.13;;
27003;SDS011;14546;47.590;19.022;2023-01-09T15:35:25;56.50;;;37.85;;
27003;SDS011;14546;47.590;19.022;2023-01-09T15:37:52;58.13;;;37.75;;
27003;SDS011;14546;47.590;19.022;2023-01-09T15:40:21;60.75;;;41.03;;
27003;SDS011;14546;47.590;19.022;2023-01-09T15:42:49;55.90;;;38.13;;
27003;SDS011;14546;47.590;19.022;2023-01-09T15:45:26;55.00;;;37.22;;
27003;SDS011;14546;47.590;19.022;2023-01-09T15:47:53;51.38;;;34.88;;
27003;SDS011;14546;47.590;19.022;2023-01-09T15:50:21;54.70;;;36.13;;
27003;SDS011;14546;47.590;19.022;2023-01-09T15:52:49;53.50;;;34.40;;
27003;SDS011;14546;47.590;19.022;2023-01-09T15:57:51;49.05;;;32.83;;
27003;SDS011;14546;47.590;19.022;2023-01-09T16:00:25;53.65;;;36.60;;
27003;SDS011;14546;47.590;19.022;2023-01-09T16:02:55;64.85;;;39.53;;
27003;SDS011;14546;47.590;19.022;2023-01-09T16:05:37;68.82;;;42.05;;
27003;SDS011;14546;47.590;19.022;2023-01-09T16:08:03;72.20;;;44.22;;
27003;SDS011;14546;47.590;19.022;2023-01-09T16:10:33;69.05;;;42.25;;
27003;SDS011;14546;47.590;19.022;2023-01-09T16:12:59;68.13;;;42.63;;
27003;SDS011;14546;47.590;19.022;2023-01-09T16:15:26;63.53;;;42.10;;
27003;SDS011;14546;47.590;19.022;2023-01-09T16:20:42;74.93;;;45.35;;
27003;SDS011;14546;47.590;19.022;2023-01-09T16:25:44;85.05;;;49.65;;
27003;SDS011;14546;47.590;19.022;2023-01-09T16:28:18;104.13;;;57.25;;
27003;SDS011;14546;47.590;19.022;2023-01-09T16:33:20;95.32;;;56.65;;
27003;SDS011;14546;47.590;19.022;2023-01-09T16:35:47;106.25;;;57.45;;
27003;SDS011;14546;47.590;19.022;2023-01-09T16:38:13;85.35;;;51.67;;
27003;SDS011;14546;47.590;19.022;2023-01-09T16:40:43;98.88;;;54.58;;
27003;SDS011;14546;47.590;19.022;2023-01-09T16:43:38;99.93;;;55.03;;
27003;SDS011;14546;47.590;19.022;2023-01-09T16:46:04;89.00;;;53.17;;
27003;SDS011;14546;47.590;19.022;2023-01-09T16:48:30;102.28;;;55.03;;
27003;SDS011;14546;47.590;19.022;2023-01-09T16:50:58;81.57;;;51.97;;
27003;SDS011;14546;47.590;19.022;2023-01-09T16:53:24;104.82;;;54.65;;
27003;SDS011;14546;47.590;19.022;2023-01-09T16:55:52;107.22;;;57.15;;
27003;SDS011;14546;47.590;19.022;2023-01-09T16:58:23;114.93;;;56.67;;